Latest Weather Observations for Strathalbyn

IDS60801

Issued at 7:31 pm CDT Sunday 24 January 2021 (issued every 10 minutes, with the page automatically refreshed every 10 minutes)

About weather observations | Map of weather stations | Latest weather observations for SA | Other Formats
Station Details ID: 024580 Name: STRATHALBYN RACECOURSE Lat: -35.28 Lon: 138.89 Height: 58.0 m
Data from the previous 72 hours. | See also: Recent months at Strathalbyn
Date/Time
CDT
Temp
°C
App
Temp
°C
Dew
Point
°C
Rel
Hum
%
Delta-T
°C
Wind Press
QNH
hPa
Press
MSL
hPa
Rain since
9am
mm
Dir  Spd
km/h
Gust
km/h
Spd
kts
Gust
kts
24/07:30pm 29.9 24.8 7.8 25 12.1 SSW 24 32 13 17 1001.5 1001.3 0.0
24/07:00pm 29.7 25.0 7.6 25 12.0 S 22 32 12 17 1001.1 1000.9 0.0
24/06:30pm 31.2 25.4 6.3 21 13.4 SSW 26 33 14 18 1000.8 1000.6 0.0
24/06:12pm 33.8 28.8 3.6 15 15.7 W 19 28 10 15 1000.6 1000.4 0.0
24/06:00pm 39.7 33.3 0.9 9 20.1 W 24 32 13 17 1000.5 1000.3 0.0
24/05:30pm 40.4 33.8 -0.2 8 20.8 WNW 24 33 13 18 1000.5 1000.3 0.0
24/05:00pm 41.3 34.1 0.5 8 21.1 NW 28 35 15 19 1000.7 1000.5 0.0
24/04:30pm 41.6 34.8 0.7 8 21.4 WNW 26 41 14 22 1001.1 1000.9 0.0
24/04:00pm 41.4 33.5 -1.3 7 21.5 WNW 30 44 16 24 1001.5 1001.3 0.0
24/03:30pm 41.9 33.7 -0.9 7 21.9 NW 32 44 17 24 1001.7 1001.5 0.0
24/03:00pm 41.3 33.1 0.5 8 21.2 WNW 33 54 18 29 1002.1 1001.8 0.0
24/02:32pm 42.3 34.2 -0.6 7 22.0 WNW 32 50 17 27 1002.4 1002.1 0.0
24/02:30pm 41.8 33.4 -1.0 7 21.8 WNW 33 50 18 27 1002.5 1002.2 0.0
24/02:01pm 42.6 34.5 -0.4 7 22.1 NW 32 50 17 27 1002.7 1002.4 0.0
24/02:00pm 42.3 34.0 -0.6 7 22.0 NW 33 50 18 27 1002.7 1002.4 0.0
24/01:32pm 42.2 33.5 -0.7 7 21.9 NW 35 54 19 29 1002.9 1002.6 0.0
24/01:30pm 42.2 34.0 -0.7 7 22.0 NW 32 48 17 26 1002.9 1002.6 0.0
24/01:20pm 42.7 35.0 -0.4 7 22.2 NNW 30 48 16 26 1003.1 1002.8 0.0
24/01:00pm 43.1 34.5 -0.1 7 22.4 N 35 48 19 26 1003.2 1002.9 0.0
24/12:30pm 42.9 35.2 -0.2 7 22.4 NNW 30 50 16 27 1003.6 1003.3 0.0
24/12:11pm 42.0 34.6 -0.9 7 21.9 NNW 28 46 15 25 1003.9 1003.6 0.0
24/12:00pm 41.9 36.0 -0.9 7 21.9 N 20 33 11 18 1004.2 1003.9 0.0
24/11:30am 39.7 33.8 -0.7 8 20.4 N 20 30 11 16 1004.7 1004.5 0.0
24/11:00am 38.3 32.5 -1.7 8 19.7 N 19 24 10 13 1004.9 1004.7 0.0
24/10:30am 37.2 30.3 -2.5 8 19.2 NNE 24 35 13 19 1005.1 1004.9 0.0
24/10:00am 36.7 30.7 -1.3 9 18.6 NNE 20 30 11 16 1005.3 1005.1 0.0
24/09:30am 35.7 27.9 -0.6 10 17.9 NNE 30 41 16 22 1005.5 1005.3 0.0
24/09:00am 34.1 28.6 1.8 13 16.4 NNE 20 30 11 16 1005.9 1005.7 0.0
24/08:30am 32.3 26.3 3.3 16 14.9 NNE 24 33 13 18 1006.1 1005.9 0.0
24/08:00am 30.6 26.0 3.6 18 13.8 NNE 17 22 9 12 1006.2 1006.0 0.0
24/07:30am 28.6 24.1 4.2 21 12.5 N 17 20 9 11 1006.1 1005.9 0.0
24/07:00am 26.6 23.0 5.0 25 11.0 N 13 17 7 9 1006.0 1005.8 0.0
24/06:30am 26.6 23.4 5.0 25 11.1 NNE 11 15 6 8 1006.0 1005.8 0.0
24/06:00am 25.8 22.8 5.9 28 10.3 NNE 11 17 6 9 1006.0 1005.8 0.0
24/05:30am 25.9 22.9 6.0 28 10.3 NNE 11 13 6 7 1006.0 1005.8 0.0
24/05:00am 25.2 21.9 6.4 30 9.8 N 13 15 7 8 1006.1 1005.9 0.0
24/04:30am 24.2 21.0 6.9 33 9.0 N 13 15 7 8 1006.0 1005.8 0.0
24/04:00am 24.2 21.0 6.9 33 9.0 N 13 15 7 8 1006.2 1006.0 0.0
24/03:30am 23.0 19.9 7.1 36 8.3 N 13 15 7 8 1006.5 1006.3 0.0
24/03:00am 22.4 19.4 7.8 39 7.7 NNW 13 17 7 9 1006.8 1006.6 0.0
24/02:30am 22.1 19.2 6.7 37 7.9 NNW 11 13 6 7 1007.2 1007.0 0.0
24/02:00am 22.1 19.1 7.5 39 7.6 NNW 13 15 7 8 1007.3 1007.1 0.0
24/01:30am 21.5 18.8 7.3 40 7.3 NNW 11 13 6 7 1007.5 1007.3 0.0
24/01:00am 22.3 20.0 7.3 38 7.8 NNW 9 13 5 7 1007.8 1007.6 0.0
24/12:30am 23.8 19.9 7.0 34 8.8 NW 17 19 9 10 1008.0 1007.8 0.0
24/12:00am 22.4 18.2 7.4 38 7.8 NNW 19 24 10 13 1008.0 1007.8 0.0
 
Date/Time
CDT
Temp
°C
App
Temp
°C
Dew
Point
°C
Rel
Hum
%
Delta-T
°C
Wind Press
QNH
hPa
Press
MSL
hPa
Rain since
9am
mm
Dir  Spd
km/h
Gust
km/h
Spd
kts
Gust
kts
23/11:30pm 21.7 19.4 7.5 40 7.4 NNW 9 17 5 9 1008.5 1008.3 0.0
23/11:00pm 21.8 19.6 8.0 41 7.2 NNW 9 13 5 7 1008.9 1008.7 0.0
23/10:30pm 21.6 19.8 7.1 39 7.5 WNW 6 9 3 5 1009.1 1008.9 0.0
23/10:00pm 22.5 22.2 8.6 41 7.4 CALM 0 0 0 0 1009.3 1009.1 0.0
23/09:30pm 23.5 21.9 8.8 39 7.9 WSW 7 9 4 5 1008.9 1008.7 0.0
23/09:00pm 24.0 22.6 9.6 40 7.9 SW 7 9 4 5 1008.6 1008.4 0.0
23/08:30pm 25.2 24.2 10.3 39 8.3 WSW 6 9 3 5 1008.4 1008.2 0.0
23/08:00pm 26.6 23.9 10.3 36 9.1 SW 15 20 8 11 1008.4 1008.2 0.0
23/07:30pm 28.0 25.0 9.3 31 10.4 SSW 15 20 8 11 1008.3 1008.1 0.0
23/07:00pm 29.0 25.2 9.2 29 11.0 SSW 19 24 10 13 1008.3 1008.1 0.0
23/06:30pm 29.7 25.3 10.3 30 11.0 SSW 24 32 13 17 1008.1 1007.9 0.0
23/06:00pm 32.2 28.1 11.4 28 12.2 SSW 24 30 13 16 1007.6 1007.4 0.0
23/05:30pm 33.7 30.2 12.1 27 12.9 SSW 22 28 12 15 1007.5 1007.3 0.0
23/05:00pm 36.1 31.1 4.4 14 16.9 SSE 20 30 11 16 1007.2 1007.0 0.0
23/04:30pm 36.4 30.8 3.6 13 17.4 SSE 22 30 12 16 1007.3 1007.1 0.0
23/04:00pm 37.6 31.4 4.5 13 17.9 SSE 26 35 14 19 1007.3 1007.1 0.0
23/03:30pm 37.7 32.7 4.6 13 17.9 ESE 20 32 11 17 1007.5 1007.3 0.0
23/03:00pm 37.1 32.8 3.0 12 18.0 SE 15 24 8 13 1007.9 1007.7 0.0
23/02:30pm 37.6 33.5 2.1 11 18.5 E 13 20 7 11 1008.1 1007.9 0.0
23/02:00pm 37.1 32.8 3.0 12 17.9 E 15 24 8 13 1008.3 1008.1 0.0
23/01:30pm 37.0 32.3 2.9 12 17.9 ENE 17 28 9 15 1008.7 1008.5 0.0
23/01:00pm 35.6 30.7 1.8 12 17.3 NE 17 24 9 13 1009.2 1009.0 0.0
23/12:30pm 34.7 29.5 2.3 13 16.6 NE 19 24 10 13 1009.5 1009.3 0.0
23/12:00pm 34.0 29.1 1.7 13 16.4 ENE 17 24 9 13 1010.0 1009.8 0.0
23/11:30am 31.8 26.6 0.0 13 15.4 ENE 17 24 9 13 1010.5 1010.3 0.0
23/11:00am 31.4 25.6 -0.3 13 15.2 ENE 20 30 11 16 1010.5 1010.3 0.0
23/10:30am 29.5 23.6 -0.8 14 14.3 NE 20 26 11 14 1010.7 1010.5 0.0
23/10:00am 27.9 22.9 1.4 18 12.8 NE 17 28 9 15 1011.1 1010.9 0.0
23/09:30am 25.7 20.4 3.0 23 11.1 NE 20 26 11 14 1011.3 1011.1 0.0
23/09:00am 24.8 20.7 4.5 27 10.2 NE 15 26 8 14 1011.3 1011.1 0.0
23/08:30am 21.5 18.9 6.2 37 7.7 NNE 9 15 5 8 1011.5 1011.3 0.0
23/08:00am 18.9 16.8 6.7 45 6.1 NNE 7 9 4 5 1011.5 1011.3 0.0
23/07:30am 15.8 14.3 8.5 62 3.7 N 6 7 3 4 1011.3 1011.1 0.0
23/07:00am 13.3 12.1 9.4 77 2.0 NNE 6 7 3 4 1011.3 1011.1 0.0
23/06:30am 12.5 11.1 9.0 79 1.8 NNE 6 7 3 4 1010.9 1010.7 0.0
23/06:00am 12.9 11.6 9.9 82 1.5 N 7 9 4 5 1010.8 1010.6 0.0
23/05:30am 12.7 11.0 9.7 82 1.5 NNW 9 11 5 6 1010.6 1010.4 0.0
23/05:00am 13.2 11.6 11.4 89 1.0 NNW 11 13 6 7 1010.7 1010.5 0.0
23/04:30am 14.8 13.9 13.8 94 0.6 N 11 13 6 7 1010.8 1010.6 0.0
23/04:00am 15.8 15.2 13.5 86 1.3 NW 9 11 5 6 1011.0 1010.8 0.0
23/03:30am 16.2 16.2 13.5 84 1.5 WNW 6 9 3 5 1011.1 1010.9 0.0
23/03:00am 16.4 17.6 13.9 85 1.4 CALM 0 0 0 0 1011.3 1011.1 0.0
23/02:30am 15.4 16.1 12.2 81 1.8 CALM 0 0 0 0 1011.6 1011.4 0.0
23/02:00am 13.6 13.8 10.4 81 1.7 CALM 0 0 0 0 1011.8 1011.6 0.0
23/01:30am 13.4 12.3 10.0 80 1.8 W 6 7 3 4 1011.9 1011.7 0.0
23/01:00am 13.7 13.1 10.3 80 1.8 WNW 4 6 2 3 1012.0 1011.8 0.0
23/12:30am 14.1 13.5 10.5 79 1.9 NW 4 9 2 5 1012.2 1012.0 0.0
23/12:00am 14.5 13.9 10.3 76 2.2 W 4 6 2 3 1012.3 1012.1 0.0
 
Date/Time
CDT
Temp
°C
App
Temp
°C
Dew
Point
°C
Rel
Hum
%
Delta-T
°C
Wind Press
QNH
hPa
Press
MSL
hPa
Rain since
9am
mm
Dir  Spd
km/h
Gust
km/h
Spd
kts
Gust
kts
22/11:30pm 14.7 13.7 10.3 75 2.3 WNW 6 7 3 4 1012.4 1012.2 0.0
22/11:00pm 16.0 15.4 11.6 75 2.4 WNW 6 7 3 4 1012.4 1012.2 0.0
22/10:30pm 16.2 15.0 11.6 74 2.5 WSW 9 9 5 5 1012.5 1012.3 0.0
22/10:00pm 16.7 15.9 11.6 72 2.8 WSW 7 9 4 5 1012.6 1012.4 0.0
22/09:30pm 17.1 16.3 11.2 68 3.2 WSW 6 9 3 5 1012.6 1012.4 0.0
22/09:00pm 18.4 16.4 11.5 64 3.8 SSW 13 17 7 9 1012.4 1012.2 0.0
22/08:30pm 19.5 16.7 10.0 54 5.1 S 15 19 8 10 1012.3 1012.1 0.0
22/08:00pm 21.5 17.8 8.1 42 7.0 SSW 17 20 9 11 1011.9 1011.7 0.0
22/07:30pm 22.6 19.7 8.0 39 7.7 SSW 13 20 7 11 1011.6 1011.4 0.0
22/07:00pm 23.3 19.1 7.4 36 8.3 SSW 19 24 10 13 1011.2 1011.0 0.0
22/06:30pm 24.1 19.4 5.9 31 9.3 S 20 30 11 16 1011.1 1010.9 0.0
22/06:00pm 24.5 20.3 5.8 30 9.6 S 17 20 9 11 1011.2 1011.0 0.0
22/05:30pm 24.4 18.9 5.7 30 9.5 SSW 24 32 13 17 1011.3 1011.1 0.0
22/05:00pm 24.7 18.7 5.5 29 9.8 SSW 26 35 14 19 1011.4 1011.2 0.0
22/04:30pm 24.6 19.1 5.9 30 9.6 SSW 24 35 13 19 1011.5 1011.3 0.0
22/04:00pm 25.9 20.4 7.5 31 9.8 S 26 35 14 19 1011.6 1011.4 0.0
22/03:30pm 25.9 20.4 6.0 28 10.3 S 24 33 13 18 1011.5 1011.3 0.0
22/03:00pm 25.8 20.5 6.9 30 9.9 S 24 33 13 18 1011.7 1011.5 0.0
22/02:30pm 26.4 21.2 7.4 30 10.1 S 24 32 13 17 1011.8 1011.6 0.0
22/02:00pm 25.6 20.6 8.1 33 9.4 SSW 24 30 13 16 1012.0 1011.8 0.0
22/01:30pm 25.7 20.1 7.3 31 9.7 S 26 35 14 19 1012.1 1011.9 0.0
22/01:00pm 27.1 22.6 8.5 31 10.1 S 22 32 12 17 1011.9 1011.7 0.0
22/12:30pm 27.2 22.3 4.3 23 11.6 SSE 19 24 10 13 1011.8 1011.6 0.0
22/12:00pm 26.1 21.9 5.7 27 10.5 S 17 24 9 13 1012.0 1011.8 0.0
22/11:30am 26.3 22.1 7.4 30 10.1 S 19 28 10 15 1012.2 1012.0 0.0
22/11:00am 25.0 21.4 6.7 31 9.5 S 15 20 8 11 1012.4 1012.2 0.0
22/10:30am 24.8 21.1 6.1 30 9.6 SSW 15 20 8 11 1012.3 1012.1 0.0
22/10:00am 23.4 19.2 3.9 28 9.6 S 15 20 8 11 1012.4 1012.2 0.0
22/09:30am 22.2 18.5 4.3 31 8.8 S 13 19 7 10 1012.3 1012.1 0.0
22/09:00am 21.6 18.4 2.8 29 8.9 S 9 15 5 8 1011.9 1011.7 0.0
22/08:30am 20.4 16.8 0.3 26 9.0 S 9 15 5 8 1011.9 1011.7 0.0
22/08:00am 19.3 17.1 -1.2 25 8.8 CALM 0 0 0 0 1011.7 1011.5 0.0
22/07:30am 16.1 12.4 -0.2 33 6.9 NNW 9 11 5 6 1011.5 1011.3 0.0
22/07:00am 12.2 8.9 -1.0 40 5.3 NNW 6 9 3 5 1011.4 1011.2 0.0
22/06:30am 11.0 6.9 -3.1 37 5.3 NNW 9 11 5 6 1011.1 1010.9 0.0
22/06:00am 10.7 6.6 -3.0 38 5.2 NNW 9 11 5 6 1010.9 1010.7 0.0
22/05:30am 11.4 7.7 -3.1 36 5.5 NNW 7 9 4 5 1010.5 1010.3 0.0
22/05:00am 12.3 7.5 -2.7 35 5.8 NNW 13 17 7 9 1010.4 1010.2 0.0
22/04:30am 12.1 8.0 -0.1 43 5.0 NNW 11 13 6 7 1010.3 1010.1 0.0
22/04:00am 12.0 7.3 1.1 47 4.6 NNW 15 17 8 9 1010.3 1010.1 0.0
22/03:30am 12.0 7.9 2.5 52 4.1 NNW 13 17 7 9 1010.2 1010.0 0.0
22/03:00am 12.1 8.8 4.6 60 3.4 NW 11 13 6 7 1010.3 1010.1 0.0
22/02:30am 12.3 8.9 6.1 66 2.9 NNW 13 13 7 7 1010.5 1010.3 0.0
22/02:00am 13.0 9.5 7.2 68 2.8 NNW 15 15 8 8 1010.7 1010.5 0.0
22/01:30am 13.1 10.1 7.8 70 2.6 NNW 13 17 7 9 1010.9 1010.7 0.0
22/01:00am 13.4 10.5 8.0 70 2.7 NNW 13 15 7 8 1010.9 1010.7 0.0
22/12:30am 15.5 13.9 10.1 70 2.8 W 9 11 5 6 1011.4 1011.2 0.0
22/12:00am 16.0 14.0 10.3 69 3.0 WSW 11 13 6 7 1012.0 1011.8 0.0
 
Date/Time
CDT
Temp
°C
App
Temp
°C
Dew
Point
°C
Rel
Hum
%
Delta-T
°C
Wind Press
QNH
hPa
Press
MSL
hPa
Rain since
9am
mm
Dir  Spd
km/h
Gust
km/h
Spd
kts
Gust
kts
21/11:30pm 15.4 13.8 8.9 65 3.3 WSW 7 9 4 5 1012.2 1012.0 0.0
21/11:00pm 15.7 13.9 9.4 66 3.3 SW 9 11 5 6 1012.2 1012.0 0.0
21/10:30pm 15.0 13.3 7.5 61 3.7 W 6 7 3 4 1012.0 1011.8 0.0
21/10:00pm 15.9 14.1 7.1 56 4.4 W 6 7 3 4 1012.0 1011.8 0.0
21/09:30pm 17.4 16.2 9.6 60 4.1 WSW 6 9 3 5 1011.9 1011.7 0.0
21/09:00pm 19.2 18.0 10.2 56 4.8 SW 7 11 4 6 1011.5 1011.3 0.0
21/08:30pm 20.6 17.2 9.2 48 6.1 SSW 17 20 9 11 1011.3 1011.1 0.0
21/08:00pm 22.6 18.1 6.0 34 8.4 SSW 19 22 10 12 1011.1 1010.9 0.0

Other formats

Comma delimited format used in spreadsheet applications
http://www.bom.gov.au/fwo/IDS60801/IDS60801.94814.axf

JavaScript Object Notation format (JSON) in row-major order
http://www.bom.gov.au/fwo/IDS60801/IDS60801.94814.json

Data quality

Most of these data are generated automatically and are frequently updated. Quality checks on data are not normally performed. It is possible for incorrect values to appear. Refer to information at About Latest Weather Observations and please check the disclaimer before using these data.